Time;durP1;ratioP1;P1;durP2;ratioP2;P2;SDS_P1;SDS_P2;PMS_P1;PMS_P2;Temp;Humidity;BMP_temperature;BMP_pressure;BME280_temperature;BME280_humidity;BME280_pressure;Samples;Min_cycle;Max_cycle;Signal;HPM_P1;HPM_P2
2023/10/19 00:00:40;;;;;;;17.90;13.07;;;15.10;76.90;;;;;;4908989;29;20468;-54
2023/10/19 00:03:06;;;;;;;14.07;12.67;;;15.10;77.20;;;;;;4907052;29;20455;-52
2023/10/19 00:05:33;;;;;;;13.80;12.03;;;15.20;76.70;;;;;;4911877;29;20441;-50
2023/10/19 00:08:00;;;;;;;15.67;12.30;;;15.40;75.80;;;;;;4901215;29;20448;-51
2023/10/19 00:10:32;;;;;;;13.73;11.90;;;15.30;76.20;;;;;;4909980;29;20964;-52
2023/10/19 00:13:03;;;;;;;14.53;10.73;;;15.50;76.00;;;;;;4906419;29;20449;-49
2023/10/19 00:15:32;;;;;;;15.33;13.57;;;15.50;75.80;;;;;;4907243;29;20460;-52
2023/10/19 00:18:05;;;;;;;15.80;13.80;;;15.80;75.40;;;;;;4902893;28;20523;-50
2023/10/19 00:20:51;;;;;;;15.70;14.10;;;16.00;73.60;;;;;;4908738;29;20448;-52
2023/10/19 00:23:25;;;;;;;16.10;14.47;;;15.70;75.80;;;;;;4904649;29;20461;-49
2023/10/19 00:25:51;;;;;;;20.30;13.27;;;15.50;76.20;;;;;;4906894;29;20963;-50
2023/10/19 00:28:18;;;;;;;14.63;13.13;;;15.30;77.50;;;;;;4908595;29;20476;-50
2023/10/19 00:30:45;;;;;;;14.13;12.50;;;15.30;78.00;;;;;;4909620;29;20197;-51
2023/10/19 00:33:21;;;;;;;15.53;13.80;;;15.30;78.10;;;;;;4909463;29;20468;-50
2023/10/19 00:35:58;;;;;;;13.50;12.10;;;15.20;79.20;;;;;;4903445;29;20461;-51
2023/10/19 00:38:27;;;;;;;14.90;13.27;;;15.10;80.40;;;;;;4903242;29;20488;-50
2023/10/19 00:43:44;;;;;;;13.13;11.93;;;15.00;81.30;;;;;;4907720;29;20524;-50
2023/10/19 00:46:26;;;;;;;12.70;11.43;;;15.00;82.30;;;;;;4904792;29;20462;-50
2023/10/19 00:49:00;;;;;;;12.83;11.67;;;15.10;81.90;;;;;;4910682;29;20473;-53
2023/10/19 00:54:16;;;;;;;15.67;13.20;;;15.10;83.00;;;;;;4900726;29;20606;-48
2023/10/19 00:56:48;;;;;;;13.40;11.40;;;15.10;83.90;;;;;;4905639;29;21049;-50
2023/10/19 00:59:21;;;;;;;13.70;12.20;;;15.20;83.20;;;;;;4907377;29;20840;-51
2023/10/19 01:01:49;;;;;;;14.00;11.80;;;15.20;83.60;;;;;;4903489;29;20500;-50
2023/10/19 01:04:20;;;;;;;14.27;11.97;;;15.30;83.20;;;;;;4907835;29;20556;-49
2023/10/19 01:07:00;;;;;;;15.60;11.37;;;15.50;82.00;;;;;;4900146;29;20456;-51
2023/10/19 01:09:27;;;;;;;13.97;12.57;;;15.60;81.70;;;;;;4905164;29;20473;-51
2023/10/19 01:11:53;;;;;;;13.97;12.43;;;15.60;81.20;;;;;;4902771;29;20454;-52
2023/10/19 01:14:27;;;;;;;14.53;13.07;;;15.50;80.90;;;;;;4904874;29;20449;-53
2023/10/19 01:16:56;;;;;;;12.80;10.93;;;15.20;83.20;;;;;;4909474;29;20983;-53
2023/10/19 01:19:23;;;;;;;15.73;14.10;;;15.20;84.30;;;;;;4907908;29;20473;-54
2023/10/19 01:21:53;;;;;;;15.20;13.60;;;15.10;84.90;;;;;;4899404;29;20485;-52
2023/10/19 01:24:41;;;;;;;15.20;13.17;;;15.30;84.20;;;;;;4903194;29;20453;-52
2023/10/19 01:27:08;;;;;;;16.07;14.37;;;15.30;83.70;;;;;;4907611;29;20978;-52
2023/10/19 01:29:37;;;;;;;15.10;13.50;;;15.30;84.00;;;;;;4903689;29;20524;-52
2023/10/19 01:32:08;;;;;;;16.13;14.23;;;15.20;84.40;;;;;;4910648;29;20524;-53
2023/10/19 01:34:35;;;;;;;15.63;14.17;;;15.30;84.50;;;;;;4908451;29;20445;-49
2023/10/19 01:37:04;;;;;;;14.73;13.23;;;15.30;84.40;;;;;;4909200;29;20441;-55
2023/10/19 01:39:32;;;;;;;14.10;12.60;;;15.40;84.10;;;;;;4901927;29;20462;-53
2023/10/19 01:41:57;;;;;;;12.90;11.60;;;15.40;85.10;;;;;;4905596;29;20448;-51
2023/10/19 01:44:24;;;;;;;13.47;11.23;;;15.50;86.00;;;;;;4906098;29;20446;-56
2023/10/19 01:46:50;;;;;;;12.97;9.17;;;15.60;86.80;;;;;;4906493;29;20310;-53
2023/10/19 01:49:25;;;;;;;9.83;8.73;;;15.70;88.10;;;;;;4908489;29;20990;-50
2023/10/19 01:51:51;;;;;;;9.50;8.60;;;15.90;87.60;;;;;;4907151;29;20193;-55
2023/10/19 01:54:22;;;;;;;10.13;8.47;;;16.10;87.30;;;;;;4903068;29;20446;-56
2023/10/19 01:56:50;;;;;;;9.37;8.27;;;16.30;87.40;;;;;;4904098;29;20457;-52
2023/10/19 01:59:16;;;;;;;7.97;7.27;;;16.50;86.80;;;;;;4895949;29;20995;-54
2023/10/19 02:01:45;;;;;;;9.83;7.60;;;16.70;84.90;;;;;;4906469;29;20453;-50
2023/10/19 02:04:13;;;;;;;9.63;8.40;;;16.90;83.80;;;;;;4901555;29;20290;-51
2023/10/19 02:06:40;;;;;;;8.10;7.17;;;17.00;83.60;;;;;;4907150;29;20504;-51
2023/10/19 02:09:16;;;;;;;7.70;6.23;;;17.10;83.20;;;;;;4900385;29;20472;-50
2023/10/19 02:11:42;;;;;;;7.93;7.13;;;17.20;82.60;;;;;;4900238;29;20476;-52
2023/10/19 02:14:14;;;;;;;7.90;6.17;;;17.30;82.30;;;;;;4902944;29;20481;-49
2023/10/19 02:16:44;;;;;;;7.10;6.00;;;17.30;83.00;;;;;;4910067;29;20201;-50
2023/10/19 02:19:10;;;;;;;9.23;7.40;;;17.40;82.90;;;;;;4904387;29;20503;-50
2023/10/19 02:21:42;;;;;;;8.20;7.00;;;17.50;83.00;;;;;;4908669;29;20548;-52
2023/10/19 02:24:09;;;;;;;9.20;7.33;;;17.60;82.50;;;;;;4902993;29;20516;-49
2023/10/19 02:26:37;;;;;;;6.83;6.13;;;17.60;81.90;;;;;;4902037;29;20442;-50
2023/10/19 02:29:07;;;;;;;6.50;5.90;;;17.70;81.30;;;;;;4908248;29;20469;-50
2023/10/19 02:31:34;;;;;;;9.27;7.30;;;17.80;81.10;;;;;;4906626;29;20470;-48
2023/10/19 02:33:59;;;;;;;9.30;8.50;;;17.80;80.80;;;;;;4903231;29;20524;-50
2023/10/19 02:36:29;;;;;;;13.67;8.67;;;17.80;81.10;;;;;;4908374;29;20532;-50
2023/10/19 02:39:00;;;;;;;10.60;9.47;;;17.70;81.20;;;;;;4909400;29;20233;-49
2023/10/19 02:41:26;;;;;;;10.30;9.40;;;17.70;80.60;;;;;;4906528;29;20464;-49
2023/10/19 02:44:09;;;;;;;10.63;9.50;;;17.60;81.00;;;;;;4904750;29;20441;-49
2023/10/19 02:46:39;;;;;;;11.83;9.47;;;17.60;80.70;;;;;;4907046;29;21063;-50
2023/10/19 02:49:13;;;;;;;10.93;9.00;;;17.30;81.70;;;;;;4900157;29;20911;-49
2023/10/19 02:51:40;;;;;;;10.57;9.47;;;17.10;83.20;;;;;;4902901;29;20441;-48
2023/10/19 02:54:15;;;;;;;10.73;9.40;;;17.20;82.50;;;;;;4904843;29;20607;-51
2023/10/19 02:56:42;;;;;;;11.80;10.67;;;17.20;82.10;;;;;;4908394;29;20524;-50
2023/10/19 02:59:09;;;;;;;9.57;8.67;;;17.40;81.10;;;;;;4904128;29;20493;-50
2023/10/19 03:01:35;;;;;;;9.73;8.80;;;17.60;80.20;;;;;;4902777;29;20497;-48
2023/10/19 03:04:01;;;;;;;11.53;10.10;;;17.30;80.60;;;;;;4902688;29;20449;-49
2023/10/19 03:06:32;;;;;;;10.50;9.40;;;17.40;80.50;;;;;;4906532;29;20192;-50
2023/10/19 03:09:01;;;;;;;11.17;10.07;;;17.50;79.50;;;;;;4912885;29;20472;-55
2023/10/19 03:11:29;;;;;;;11.07;10.00;;;17.60;78.70;;;;;;4910011;29;20479;-53
2023/10/19 03:13:56;;;;;;;12.00;9.77;;;17.60;78.40;;;;;;4914030;29;20453;-51
2023/10/19 03:16:23;;;;;;;12.60;9.50;;;17.50;77.70;;;;;;4908744;29;20755;-51
2023/10/19 03:18:54;;;;;;;9.80;8.80;;;17.30;79.00;;;;;;4911083;29;20492;-48
2023/10/19 03:21:26;;;;;;;10.60;9.70;;;17.40;78.50;;;;;;4907349;29;20446;-52
2023/10/19 03:23:56;;;;;;;11.20;9.00;;;17.40;78.20;;;;;;4907423;29;20509;-51
2023/10/19 03:26:27;;;;;;;10.23;9.27;;;17.30;78.10;;;;;;4911383;29;20472;-51
2023/10/19 03:28:56;;;;;;;10.33;9.33;;;16.80;80.30;;;;;;4908412;29;20555;-49
2023/10/19 03:31:23;;;;;;;11.80;10.20;;;16.70;81.20;;;;;;4906651;29;20446;-50
2023/10/19 03:33:53;;;;;;;10.10;9.00;;;16.70;81.70;;;;;;4908032;29;20456;-54
2023/10/19 03:36:23;;;;;;;9.97;9.00;;;16.90;80.60;;;;;;4906328;29;20440;-52
2023/10/19 03:38:51;;;;;;;9.80;8.80;;;17.00;79.60;;;;;;4900846;29;21220;-52
2023/10/19 03:41:21;;;;;;;9.33;8.23;;;16.90;79.20;;;;;;4906934;29;20460;-57
2023/10/19 03:43:48;;;;;;;9.67;8.37;;;16.90;79.90;;;;;;4905440;29;20525;-51
2023/10/19 03:46:22;;;;;;;11.30;8.50;;;16.80;80.40;;;;;;4906263;29;20485;-53
2023/10/19 03:48:48;;;;;;;9.83;8.90;;;16.60;81.50;;;;;;4902408;29;20529;-54
2023/10/19 03:51:14;;;;;;;10.23;8.27;;;16.50;82.30;;;;;;4905824;29;20560;-54
2023/10/19 03:53:46;;;;;;;9.17;7.83;;;16.70;81.60;;;;;;4908132;29;20192;-51
2023/10/19 03:56:12;;;;;;;9.30;8.13;;;16.80;81.10;;;;;;4909614;29;20281;-50
2023/10/19 03:58:40;;;;;;;11.30;7.80;;;16.80;81.00;;;;;;4907963;29;20572;-51
2023/10/19 04:01:05;;;;;;;9.90;8.87;;;16.80;80.80;;;;;;4910513;29;20696;-54
2023/10/19 04:03:32;;;;;;;9.83;8.87;;;16.70;81.10;;;;;;4919472;29;20444;-51
2023/10/19 04:06:01;;;;;;;12.13;9.87;;;16.50;80.90;;;;;;4910286;29;20449;-52
2023/10/19 04:08:27;;;;;;;9.10;8.20;;;16.40;82.00;;;;;;4906454;29;20308;-50
2023/10/19 04:11:08;;;;;;;9.07;8.17;;;16.50;81.50;;;;;;4908855;29;20873;-53
2023/10/19 04:13:36;;;;;;;8.70;7.90;;;16.70;80.70;;;;;;4912504;29;20189;-51
2023/10/19 04:16:03;;;;;;;9.47;8.17;;;16.80;79.70;;;;;;4918409;29;20886;-54
2023/10/19 04:18:29;;;;;;;8.63;7.30;;;17.00;79.00;;;;;;4909647;29;20492;-49
2023/10/19 04:20:55;;;;;;;9.20;7.50;;;17.10;78.00;;;;;;4905789;29;20441;-50
2023/10/19 04:23:26;;;;;;;9.37;7.07;;;17.10;78.00;;;;;;4909221;29;20769;-54
2023/10/19 04:25:56;;;;;;;7.90;7.07;;;17.10;77.60;;;;;;4910817;29;20449;-54
2023/10/19 04:28:30;;;;;;;9.53;7.57;;;17.20;77.10;;;;;;4905906;29;20470;-50
2023/10/19 04:30:56;;;;;;;7.47;6.70;;;17.30;76.70;;;;;;4903248;29;20456;-54
2023/10/19 04:33:25;;;;;;;8.00;7.30;;;17.40;76.40;;;;;;4910020;29;20462;-50
2023/10/19 04:35:55;;;;;;;10.10;9.20;;;17.40;76.10;;;;;;4905355;29;20481;-52
2023/10/19 04:38:24;;;;;;;11.67;9.07;;;17.00;76.70;;;;;;4908246;29;20580;-50
2023/10/19 04:40:49;;;;;;;9.50;8.47;;;16.90;77.90;;;;;;4909734;29;20441;-49
2023/10/19 04:43:16;;;;;;;7.90;7.13;;;16.90;77.90;;;;;;4911184;29;20472;-52
2023/10/19 04:45:44;;;;;;;7.47;6.33;;;16.90;79.20;;;;;;4911559;29;20216;-54
2023/10/19 04:48:10;;;;;;;10.13;9.00;;;17.00;79.50;;;;;;4905859;29;20461;-50
2023/10/19 04:50:35;;;;;;;11.87;8.00;;;17.00;79.80;;;;;;4906535;29;20472;-55
2023/10/19 04:53:01;;;;;;;9.30;7.37;;;17.20;78.30;;;;;;4908370;29;20193;-55
2023/10/19 04:55:29;;;;;;;7.67;7.03;;;17.10;78.40;;;;;;4908965;29;20260;-53
2023/10/19 04:57:56;;;;;;;8.03;7.23;;;17.20;77.60;;;;;;4909657;29;20484;-50
2023/10/19 05:00:24;;;;;;;8.90;8.00;;;17.30;77.00;;;;;;4903742;29;20658;-51
2023/10/19 05:02:51;;;;;;;7.80;7.00;;;17.30;76.50;;;;;;4903274;29;20474;-54
2023/10/19 05:05:17;;;;;;;6.80;6.20;;;17.30;76.10;;;;;;4906864;29;21064;-53
2023/10/19 05:07:43;;;;;;;7.20;6.50;;;17.40;75.90;;;;;;4904411;29;20601;-55
2023/10/19 05:10:09;;;;;;;8.70;7.00;;;17.30;76.50;;;;;;4900388;29;20448;-53
2023/10/19 05:12:34;;;;;;;10.50;8.10;;;17.30;76.40;;;;;;4905251;29;20198;-52
2023/10/19 05:15:00;;;;;;;8.87;7.97;;;17.40;75.60;;;;;;4907482;29;20232;-49
2023/10/19 05:17:27;;;;;;;8.97;8.07;;;17.40;75.10;;;;;;4908587;29;20575;-53
2023/10/19 05:19:52;;;;;;;9.80;8.80;;;17.30;74.90;;;;;;4910562;29;20233;-54
2023/10/19 05:22:18;;;;;;;8.13;7.40;;;17.30;74.50;;;;;;4907442;29;20469;-56
2023/10/19 05:24:44;;;;;;;8.03;7.33;;;17.30;74.20;;;;;;4904055;29;20200;-49
2023/10/19 05:27:12;;;;;;;7.10;6.40;;;17.30;74.20;;;;;;4907373;29;20449;-50
2023/10/19 05:29:38;;;;;;;10.70;8.30;;;17.30;74.50;;;;;;4910482;29;20582;-55
2023/10/19 05:32:04;;;;;;;8.80;7.90;;;17.20;75.00;;;;;;4898670;29;20874;-49
2023/10/19 05:34:32;;;;;;;8.97;8.07;;;17.20;75.00;;;;;;4901857;29;20442;-51
2023/10/19 05:37:02;;;;;;;8.33;7.17;;;17.30;74.80;;;;;;4908413;29;20661;-50
2023/10/19 05:39:28;;;;;;;8.03;6.87;;;17.40;74.40;;;;;;4905996;29;20496;-50
2023/10/19 05:41:55;;;;;;;8.20;7.30;;;17.50;74.20;;;;;;4907244;29;21051;-50
2023/10/19 05:44:21;;;;;;;10.80;7.73;;;17.60;73.90;;;;;;4909638;29;20540;-51
2023/10/19 05:46:46;;;;;;;8.20;7.40;;;17.60;73.30;;;;;;4911685;29;22322;-51
2023/10/19 05:49:12;;;;;;;11.07;7.20;;;17.60;72.20;;;;;;4916754;29;20217;-51
2023/10/19 05:51:39;;;;;;;8.43;7.63;;;17.50;73.10;;;;;;4918314;29;20209;-52
2023/10/19 05:54:05;;;;;;;9.73;8.80;;;17.30;74.20;;;;;;4912812;29;20441;-50
2023/10/19 05:56:36;;;;;;;11.67;7.30;;;17.20;74.30;;;;;;4912942;29;20437;-52
2023/10/19 05:59:02;;;;;;;10.43;8.00;;;17.10;74.60;;;;;;4916872;29;20512;-51
2023/10/19 06:01:27;;;;;;;26.70;10.90;;;17.00;74.70;;;;;;4916858;29;20479;-52
2023/10/19 06:03:53;;;;;;;15.90;9.90;;;17.10;74.60;;;;;;4914979;29;20189;-48
2023/10/19 06:06:20;;;;;;;18.47;10.00;;;17.30;74.00;;;;;;4909300;29;20197;-48
2023/10/19 06:08:45;;;;;;;15.60;10.27;;;17.40;73.20;;;;;;4919663;29;20733;-52
2023/10/19 06:11:11;;;;;;;10.47;9.20;;;17.40;72.80;;;;;;4919309;29;20448;-52
2023/10/19 06:13:36;;;;;;;9.83;8.50;;;17.50;72.50;;;;;;4915023;29;20189;-52
2023/10/19 06:16:02;;;;;;;9.60;8.63;;;17.50;71.90;;;;;;4917357;29;20209;-50
2023/10/19 06:18:29;;;;;;;10.27;8.27;;;17.60;71.50;;;;;;4906860;29;20320;-50
2023/10/19 06:20:55;;;;;;;9.17;8.37;;;17.60;71.20;;;;;;4907748;29;20623;-51
2023/10/19 06:23:20;;;;;;;8.87;8.03;;;17.60;71.10;;;;;;4911584;29;20449;-54
2023/10/19 06:25:46;;;;;;;9.87;8.87;;;17.60;70.80;;;;;;4910445;29;20498;-55
2023/10/19 06:28:12;;;;;;;10.73;9.53;;;17.60;70.80;;;;;;4911433;29;20295;-51
2023/10/19 06:30:40;;;;;;;9.30;8.40;;;17.30;71.40;;;;;;4907038;29;20496;-51
2023/10/19 06:33:05;;;;;;;11.40;8.57;;;17.00;72.90;;;;;;4916176;29;20763;-49
2023/10/19 06:35:32;;;;;;;9.60;8.80;;;16.80;74.50;;;;;;4915654;29;20514;-49
2023/10/19 06:37:59;;;;;;;8.83;8.03;;;16.80;75.20;;;;;;4913421;29;20243;-50
2023/10/19 06:40:26;;;;;;;9.20;7.87;;;16.90;75.00;;;;;;4914081;29;20459;-50
2023/10/19 06:42:55;;;;;;;9.73;7.93;;;17.10;74.20;;;;;;4915801;29;20429;-52
2023/10/19 06:45:21;;;;;;;8.50;7.50;;;17.20;73.50;;;;;;4914748;29;20796;-50
2023/10/19 06:47:49;;;;;;;8.70;7.80;;;17.20;73.30;;;;;;4911941;29;20453;-53
2023/10/19 06:50:17;;;;;;;8.70;7.90;;;17.20;73.80;;;;;;4917730;29;20447;-52
2023/10/19 06:52:44;;;;;;;11.77;8.87;;;17.30;73.30;;;;;;4923392;29;20456;-52
2023/10/19 06:55:14;;;;;;;10.57;7.97;;;17.30;73.30;;;;;;4915911;29;20500;-51
2023/10/19 06:57:43;;;;;;;9.30;8.50;;;17.40;73.30;;;;;;4914307;29;20488;-52
2023/10/19 07:00:16;;;;;;;9.00;8.10;;;17.40;72.90;;;;;;4909575;29;20472;-52
2023/10/19 07:02:45;;;;;;;9.67;8.80;;;17.60;72.30;;;;;;4905926;29;20433;-50
2023/10/19 07:05:13;;;;;;;8.93;8.03;;;17.60;71.80;;;;;;4916255;29;20436;-48
2023/10/19 07:07:44;;;;;;;8.70;7.90;;;17.50;71.60;;;;;;4919582;29;20818;-52
2023/10/19 07:10:12;;;;;;;9.17;8.27;;;17.40;72.40;;;;;;4913450;29;20456;-50
2023/10/19 07:12:39;;;;;;;8.70;7.90;;;17.40;72.80;;;;;;4916013;29;20520;-50
2023/10/19 07:15:13;;;;;;;7.63;6.70;;;17.30;72.60;;;;;;4918220;29;20461;-53
2023/10/19 07:17:41;;;;;;;7.87;7.17;;;17.30;72.90;;;;;;4919069;29;20483;-53
2023/10/19 07:20:09;;;;;;;9.30;8.40;;;17.30;73.30;;;;;;4923954;29;20457;-52
2023/10/19 07:22:39;;;;;;;6.67;6.10;;;17.30;73.30;;;;;;4921339;29;20460;-50
2023/10/19 07:25:06;;;;;;;7.57;6.90;;;17.40;73.30;;;;;;4915175;29;20853;-53
2023/10/19 07:27:33;;;;;;;8.00;7.20;;;17.50;73.00;;;;;;4913275;29;20458;-51
2023/10/19 07:29:59;;;;;;;7.67;6.87;;;17.50;73.20;;;;;;4920088;29;20552;-53
2023/10/19 07:32:25;;;;;;;7.30;6.43;;;17.50;73.10;;;;;;4927620;29;20444;-52
2023/10/19 07:34:50;;;;;;;7.97;6.70;;;17.50;73.50;;;;;;4907608;29;20948;-50
2023/10/19 07:37:16;;;;;;;7.10;6.30;;;17.40;73.80;;;;;;4928724;29;20196;-50
2023/10/19 07:39:48;;;;;;;7.90;7.03;;;17.50;73.70;;;;;;4921771;29;20251;-50
2023/10/19 07:42:15;;;;;;;7.97;7.17;;;17.60;73.50;;;;;;4913081;29;20249;-51
2023/10/19 07:44:40;;;;;;;6.67;6.07;;;17.70;73.20;;;;;;4913434;29;20484;-51
2023/10/19 07:47:09;;;;;;;7.00;6.40;;;17.90;72.60;;;;;;4912195;28;20445;-47
2023/10/19 07:49:40;;;;;;;7.60;6.90;;;17.90;72.80;;;;;;4910526;29;20476;-50
2023/10/19 07:52:10;;;;;;;8.83;6.67;;;17.90;72.80;;;;;;4917695;29;20506;-51
2023/10/19 07:54:37;;;;;;;8.00;7.00;;;17.90;73.70;;;;;;4917526;29;20540;-50
2023/10/19 07:57:05;;;;;;;9.00;6.53;;;17.60;75.00;;;;;;4915348;29;21024;-51
2023/10/19 07:59:34;;;;;;;7.03;6.33;;;17.50;76.20;;;;;;4913610;29;20461;-50
2023/10/19 08:02:04;;;;;;;7.27;6.37;;;17.50;76.90;;;;;;4916419;29;20496;-52
2023/10/19 08:04:30;;;;;;;9.93;7.60;;;17.60;76.70;;;;;;4912431;29;20449;-50
2023/10/19 08:06:56;;;;;;;10.60;7.40;;;17.50;77.30;;;;;;4909522;29;20544;-50
2023/10/19 08:09:23;;;;;;;8.83;7.90;;;17.20;78.90;;;;;;4918179;28;20483;-50
2023/10/19 08:11:55;;;;;;;10.27;6.77;;;17.20;81.00;;;;;;4928858;29;20456;-52
2023/10/19 08:14:24;;;;;;;7.47;6.97;;;17.20;82.00;;;;;;4903299;29;21121;-50
2023/10/19 08:16:50;;;;;;;7.67;6.97;;;17.50;80.80;;;;;;4900957;29;20988;-51
2023/10/19 08:19:16;;;;;;;6.97;6.27;;;17.70;80.20;;;;;;4906472;29;21511;-52
2023/10/19 08:21:42;;;;;;;7.90;7.20;;;17.70;80.10;;;;;;4910273;29;20524;-52
2023/10/19 08:24:13;;;;;;;6.87;6.20;;;17.80;80.10;;;;;;4911677;29;20713;-54
2023/10/19 08:26:39;;;;;;;9.10;6.40;;;17.80;79.90;;;;;;4911689;29;20468;-52
2023/10/19 08:29:12;;;;;;;7.40;6.23;;;18.00;79.50;;;;;;4919968;29;21015;-53
2023/10/19 08:31:41;;;;;;;7.23;6.60;;;18.30;77.60;;;;;;4914049;29;20448;-55
2023/10/19 08:34:09;;;;;;;7.13;6.40;;;18.50;76.50;;;;;;4911793;29;20536;-54
2023/10/19 08:36:36;;;;;;;7.63;6.80;;;18.40;76.10;;;;;;4903653;29;20607;-50
2023/10/19 08:39:05;;;;;;;7.57;6.33;;;18.50;76.70;;;;;;4909010;29;20583;-48
2023/10/19 08:41:34;;;;;;;6.20;5.60;;;18.60;75.90;;;;;;4914213;29;20500;-51
2023/10/19 08:44:02;;;;;;;7.33;6.63;;;18.90;75.40;;;;;;4914155;29;20524;-52
2023/10/19 08:46:28;;;;;;;6.47;5.60;;;19.00;75.20;;;;;;4912208;29;20539;-52
2023/10/19 08:48:56;;;;;;;6.43;5.83;;;19.10;75.70;;;;;;4915254;29;20580;-53
2023/10/19 08:51:24;;;;;;;6.50;5.90;;;19.10;76.20;;;;;;4921291;29;20418;-50
2023/10/19 08:53:54;;;;;;;5.80;5.20;;;19.10;75.80;;;;;;4908065;29;21117;-51
2023/10/19 08:56:23;;;;;;;6.23;5.63;;;19.20;76.10;;;;;;4913802;29;20461;-51
2023/10/19 08:58:51;;;;;;;6.87;5.87;;;19.20;75.90;;;;;;4913700;29;20481;-51
2023/10/19 09:01:19;;;;;;;7.20;5.93;;;19.30;76.10;;;;;;4909982;28;20437;-51
2023/10/19 09:03:46;;;;;;;6.20;5.40;;;19.40;75.40;;;;;;4912034;29;20448;-50
2023/10/19 09:06:12;;;;;;;5.17;4.67;;;19.60;74.20;;;;;;4905626;29;20453;-51
2023/10/19 09:08:40;;;;;;;6.90;5.10;;;19.60;73.70;;;;;;4911651;29;20468;-51
2023/10/19 09:11:13;;;;;;;5.50;4.97;;;19.50;74.50;;;;;;4917807;29;20556;-50
2023/10/19 09:13:46;;;;;;;4.90;4.40;;;19.80;74.10;;;;;;4914423;29;20588;-51
2023/10/19 09:16:20;;;;;;;4.80;4.40;;;20.10;73.70;;;;;;4910687;29;20608;-51
2023/10/19 09:18:46;;;;;;;4.80;4.40;;;20.30;72.90;;;;;;4913711;29;20528;-50
2023/10/19 09:21:23;;;;;;;4.60;4.20;;;20.40;72.60;;;;;;4909686;29;20457;-53
2023/10/19 09:23:51;;;;;;;6.20;4.83;;;20.60;72.00;;;;;;4909819;29;20445;-51
2023/10/19 09:26:18;;;;;;;5.00;4.00;;;20.70;71.60;;;;;;4911204;29;20823;-48
2023/10/19 09:28:47;;;;;;;9.30;5.67;;;20.90;70.20;;;;;;4910851;29;20484;-50
2023/10/19 09:31:13;;;;;;;13.27;5.40;;;21.00;69.50;;;;;;4903652;29;21279;-51
2023/10/19 09:33:41;;;;;;;10.33;5.27;;;20.90;68.30;;;;;;4911405;29;20535;-51
2023/10/19 09:36:15;;;;;;;4.97;4.47;;;21.10;70.10;;;;;;4915337;29;20449;-48
2023/10/19 09:38:47;;;;;;;5.10;3.97;;;21.40;68.70;;;;;;4911979;29;20576;-51
2023/10/19 09:41:13;;;;;;;6.43;4.77;;;21.50;67.90;;;;;;4912135;29;20434;-51
2023/10/19 09:43:48;;;;;;;4.53;4.23;;;21.60;66.90;;;;;;4911754;29;20484;-54
2023/10/19 09:46:22;;;;;;;6.50;4.30;;;21.60;65.70;;;;;;4920521;29;20460;-54
2023/10/19 09:48:48;;;;;;;8.00;4.37;;;21.70;64.80;;;;;;4904237;29;21003;-50
2023/10/19 09:51:16;;;;;;;4.50;4.10;;;21.80;65.40;;;;;;4915957;29;20446;-51
2023/10/19 09:53:45;;;;;;;7.37;4.73;;;21.80;65.40;;;;;;4910092;29;20493;-52
2023/10/19 09:56:15;;;;;;;7.40;4.43;;;21.90;65.50;;;;;;4911773;29;20493;-49
2023/10/19 09:58:46;;;;;;;4.47;4.10;;;22.00;66.10;;;;;;4910249;29;21480;-49
2023/10/19 10:01:14;;;;;;;5.77;4.90;;;21.90;65.40;;;;;;4917375;29;20912;-51
2023/10/19 10:03:53;;;;;;;5.17;4.63;;;21.90;65.30;;;;;;4917794;29;20441;-50
2023/10/19 10:06:50;;;;;;;5.57;5.03;;;21.90;65.00;;;;;;4909306;29;20440;-49
2023/10/19 10:09:23;;;;;;;4.97;4.47;;;21.90;65.60;;;;;;4921409;29;20560;-49
2023/10/19 10:11:49;;;;;;;5.20;4.80;;;22.00;65.90;;;;;;4919781;29;20445;-50
2023/10/19 10:14:25;;;;;;;4.77;4.33;;;22.20;64.80;;;;;;4919245;29;20453;-51
2023/10/19 10:17:09;;;;;;;5.23;4.73;;;22.10;64.90;;;;;;4920631;29;20973;-51
2023/10/19 10:19:35;;;;;;;5.03;4.57;;;22.10;64.20;;;;;;4907306;29;20476;-49
2023/10/19 10:22:14;;;;;;;5.20;4.70;;;21.80;64.90;;;;;;4911334;29;20973;-50
2023/10/19 10:24:43;;;;;;;6.27;4.40;;;21.50;66.10;;;;;;4903819;29;20305;-50
2023/10/19 10:27:09;;;;;;;5.80;5.10;;;21.30;66.80;;;;;;4912621;29;20468;-51
2023/10/19 10:29:35;;;;;;;6.37;5.77;;;21.40;67.10;;;;;;4917536;29;21018;-49
2023/10/19 10:32:01;;;;;;;5.33;4.83;;;21.40;66.30;;;;;;4912154;29;20442;-49
2023/10/19 10:34:33;;;;;;;5.20;4.70;;;21.50;65.90;;;;;;4911387;29;20437;-50
2023/10/19 10:37:02;;;;;;;5.93;4.97;;;21.70;66.40;;;;;;4910533;29;20449;-52
2023/10/19 10:39:30;;;;;;;6.80;4.87;;;21.90;65.70;;;;;;4913371;29;20488;-53
2023/10/19 10:41:59;;;;;;;9.07;5.10;;;21.90;65.20;;;;;;4904968;29;20449;-50
2023/10/19 10:44:47;;;;;;;10.10;5.47;;;21.90;63.10;;;;;;4907806;29;21040;-49
2023/10/19 10:47:24;;;;;;;11.97;5.90;;;22.20;61.90;;;;;;4903550;29;20461;-50
2023/10/19 10:49:51;;;;;;;7.80;5.60;;;22.40;60.90;;;;;;4910902;29;21014;-52
2023/10/19 10:52:43;;;;;;;6.80;4.67;;;22.70;60.20;;;;;;4907338;29;20993;-53
2023/10/19 10:55:11;;;;;;;7.93;4.57;;;22.90;59.70;;;;;;4913171;29;20951;-51
2023/10/19 10:57:37;;;;;;;6.40;4.83;;;23.10;59.40;;;;;;4911821;29;20469;-49
2023/10/19 11:00:15;;;;;;;7.80;4.57;;;23.30;58.90;;;;;;4910755;29;20488;-50
2023/10/19 11:02:43;;;;;;;4.90;4.40;;;23.50;58.70;;;;;;4908887;29;20945;-54
2023/10/19 11:05:11;;;;;;;7.70;3.77;;;23.50;58.30;;;;;;4904258;29;20518;-51
2023/10/19 11:07:38;;;;;;;5.87;4.73;;;23.60;58.20;;;;;;4916065;29;20449;-51
2023/10/19 11:10:04;;;;;;;4.77;4.07;;;23.70;58.00;;;;;;4915099;29;20992;-48
2023/10/19 11:12:30;;;;;;;3.87;3.50;;;23.70;57.90;;;;;;4918867;29;20467;-52
2023/10/19 11:15:00;;;;;;;5.17;3.67;;;23.80;57.80;;;;;;4917226;29;20193;-53
2023/10/19 11:17:31;;;;;;;8.00;4.23;;;23.80;57.80;;;;;;4918281;29;20194;-49
2023/10/19 11:19:58;;;;;;;5.40;4.27;;;23.90;57.50;;;;;;4911739;29;20568;-50
2023/10/19 11:22:24;;;;;;;4.80;4.07;;;24.00;57.40;;;;;;4907087;29;20437;-51
2023/10/19 11:24:54;;;;;;;4.07;3.20;;;24.00;57.20;;;;;;4922549;29;20503;-50
2023/10/19 11:27:27;;;;;;;4.90;3.50;;;24.00;57.70;;;;;;4918274;29;20444;-49
2023/10/19 11:29:57;;;;;;;5.97;3.20;;;24.00;56.90;;;;;;4925491;29;20460;-53
2023/10/19 11:32:25;;;;;;;6.80;4.40;;;24.10;56.70;;;;;;4917478;29;20453;-52
2023/10/19 11:34:52;;;;;;;3.83;2.87;;;24.10;56.90;;;;;;4915123;29;20842;-52
2023/10/19 11:37:17;;;;;;;4.33;3.03;;;24.10;56.90;;;;;;4913740;29;20439;-51
2023/10/19 11:39:43;;;;;;;2.93;2.73;;;24.10;57.00;;;;;;4907202;29;20468;-52
2023/10/19 11:42:10;;;;;;;3.13;2.93;;;24.10;58.10;;;;;;4917393;29;20650;-54
2023/10/19 11:44:36;;;;;;;2.87;2.50;;;24.00;58.90;;;;;;4909950;29;20221;-54
2023/10/19 11:47:03;;;;;;;5.60;3.20;;;23.70;57.90;;;;;;4900284;29;20457;-53
2023/10/19 11:49:29;;;;;;;5.27;2.40;;;23.60;59.00;;;;;;4911020;29;20464;-52
2023/10/19 11:51:54;;;;;;;3.20;2.80;;;23.20;59.90;;;;;;4901137;29;20450;-54
2023/10/19 11:54:20;;;;;;;3.00;2.67;;;23.00;59.80;;;;;;4912771;29;21201;-51
2023/10/19 11:56:46;;;;;;;4.03;2.90;;;23.00;60.20;;;;;;4906645;29;20193;-54
2023/10/19 11:59:12;;;;;;;3.90;3.40;;;22.90;60.60;;;;;;4914488;29;20276;-49
2023/10/19 12:01:38;;;;;;;3.30;3.00;;;22.90;61.20;;;;;;4913519;29;20284;-51
2023/10/19 12:04:05;;;;;;;4.23;2.73;;;22.80;61.80;;;;;;4912959;29;20457;-50
2023/10/19 12:06:31;;;;;;;4.67;3.33;;;22.80;62.20;;;;;;4904086;29;20476;-50
2023/10/19 12:09:02;;;;;;;4.03;3.27;;;22.60;63.00;;;;;;4910100;29;20469;-52
2023/10/19 12:11:28;;;;;;;3.50;3.20;;;22.50;64.10;;;;;;4909852;29;20524;-49
2023/10/19 12:13:54;;;;;;;4.13;3.57;;;22.30;64.50;;;;;;4912836;29;20422;-50
2023/10/19 12:16:21;;;;;;;4.23;3.00;;;22.20;65.80;;;;;;4912233;29;20201;-49
2023/10/19 12:18:48;;;;;;;3.63;3.33;;;22.20;65.90;;;;;;4912257;29;20493;-51
2023/10/19 12:21:14;;;;;;;7.47;4.30;;;22.20;66.50;;;;;;4911986;29;20826;-48
2023/10/19 12:23:40;;;;;;;5.20;4.17;;;22.20;67.10;;;;;;4911536;29;20474;-50
2023/10/19 12:26:11;;;;;;;4.40;3.50;;;22.30;67.40;;;;;;4913862;29;20421;-48
2023/10/19 12:28:38;;;;;;;5.27;3.80;;;22.20;67.90;;;;;;4912216;29;20464;-54
2023/10/19 12:31:05;;;;;;;4.17;3.60;;;22.20;68.00;;;;;;4910132;29;20456;-48
2023/10/19 12:33:30;;;;;;;5.10;3.77;;;22.30;67.90;;;;;;4909636;29;20906;-51
2023/10/19 12:35:59;;;;;;;4.13;3.83;;;22.20;68.00;;;;;;4911826;29;20509;-51
2023/10/19 12:38:25;;;;;;;4.50;3.60;;;22.10;68.90;;;;;;4902631;29;20456;-52
2023/10/19 12:40:51;;;;;;;5.03;4.00;;;21.90;70.30;;;;;;4909483;29;20449;-51
2023/10/19 12:43:25;;;;;;;5.93;5.33;;;21.60;72.30;;;;;;4907976;29;20877;-51
2023/10/19 12:45:53;;;;;;;7.13;6.10;;;21.40;74.50;;;;;;4912279;29;21237;-50
2023/10/19 12:48:19;;;;;;;7.67;5.70;;;21.30;75.30;;;;;;4908560;29;20477;-50
2023/10/19 12:50:45;;;;;;;6.27;5.70;;;20.70;78.30;;;;;;4909728;29;20442;-54
2023/10/19 12:53:11;;;;;;;8.63;6.57;;;20.60;79.40;;;;;;4910656;29;20457;-54
2023/10/19 12:55:39;;;;;;;8.33;6.30;;;20.40;80.50;;;;;;4914773;29;20936;-51